Time;durP1;ratioP1;P1;durP2;ratioP2;P2;SDS_P1;SDS_P2;PMS_P1;PMS_P2;Temp;Humidity;BMP_temperature;BMP_pressure;BME280_temperature;BME280_humidity;BME280_pressure;Samples;Min_cycle;Max_cycle;Signal;HPM_P1;HPM_P2
2021/03/10 00:00:37;;;;;;;12.10;6.38;;;;;;;;;;5054178;28;20071;-38
2021/03/10 00:03:02;;;;;;;15.25;6.82;;;;;;;;;;5053898;28;20058;-39
2021/03/10 00:05:28;;;;;;;12.48;6.75;;;;;;;;;;5054359;28;20013;-38
2021/03/10 00:07:53;;;;;;;9.02;5.60;;;;;;;;;;5054353;28;20021;-39
2021/03/10 00:10:18;;;;;;;13.05;6.82;;;;;;;;;;5054299;28;20024;-39
2021/03/10 00:12:44;;;;;;;8.90;6.25;;;;;;;;;;5054385;28;20021;-39
2021/03/10 00:15:10;;;;;;;8.13;5.90;;;;;;;;;;5054204;28;20376;-39
2021/03/10 00:17:35;;;;;;;11.32;6.38;;;;;;;;;;5054409;28;20325;-39
2021/03/10 00:20:01;;;;;;;11.80;6.72;;;;;;;;;;5053982;28;20021;-39
2021/03/10 00:22:26;;;;;;;10.98;6.18;;;;;;;;;;5054282;28;20027;-39
2021/03/10 00:24:51;;;;;;;9.35;6.30;;;;;;;;;;5054440;28;20397;-39
2021/03/10 00:27:26;;;;;;;14.23;6.80;;;;;;;;;;5054088;28;20021;-39
2021/03/10 00:29:58;;;;;;;10.30;5.97;;;;;;;;;;5054125;28;20100;-39
2021/03/10 00:32:25;;;;;;;8.43;5.57;;;;;;;;;;5054108;28;20021;-39
2021/03/10 00:34:50;;;;;;;11.20;6.10;;;;;;;;;;5054337;28;20246;-39
2021/03/10 00:37:16;;;;;;;9.05;6.00;;;;;;;;;;5053995;28;20107;-39
2021/03/10 00:39:42;;;;;;;8.60;5.93;;;;;;;;;;5054187;28;20092;-39
2021/03/10 00:42:07;;;;;;;8.88;5.78;;;;;;;;;;5054097;28;20079;-39
2021/03/10 00:44:33;;;;;;;8.50;6.07;;;;;;;;;;5053780;28;20576;-39
2021/03/10 00:46:58;;;;;;;8.93;5.67;;;;;;;;;;5053590;28;20597;-39
2021/03/10 00:49:23;;;;;;;9.97;6.77;;;;;;;;;;5053705;28;20013;-39
2021/03/10 00:51:49;;;;;;;12.27;6.47;;;;;;;;;;5053698;28;20097;-39
2021/03/10 00:54:14;;;;;;;10.00;5.78;;;;;;;;;;5053919;28;20250;-39
2021/03/10 00:56:39;;;;;;;8.07;5.53;;;;;;;;;;5053291;28;20025;-39
2021/03/10 00:59:04;;;;;;;10.37;6.67;;;;;;;;;;5053583;28;20261;-39
2021/03/10 01:01:29;;;;;;;8.30;5.83;;;;;;;;;;5053911;28;20405;-39
2021/03/10 01:03:55;;;;;;;17.53;7.13;;;;;;;;;;5056284;28;20021;-39
2021/03/10 01:06:24;;;;;;;10.23;6.07;;;;;;;;;;5057360;28;20322;-39
2021/03/10 01:08:49;;;;;;;8.88;6.00;;;;;;;;;;5057740;28;20151;-39
2021/03/10 01:11:14;;;;;;;8.13;5.95;;;;;;;;;;5057534;28;20111;-39
2021/03/10 01:13:40;;;;;;;11.83;6.07;;;;;;;;;;5057332;28;20021;-39
2021/03/10 01:16:05;;;;;;;9.05;6.18;;;;;;;;;;5057392;28;20641;-39
2021/03/10 01:18:30;;;;;;;10.55;5.70;;;;;;;;;;5057664;28;20028;-39
2021/03/10 01:20:55;;;;;;;10.23;5.77;;;;;;;;;;5057249;28;20021;-39
2021/03/10 01:23:20;;;;;;;9.03;5.60;;;;;;;;;;5057190;28;20405;-39
2021/03/10 01:25:46;;;;;;;9.50;6.00;;;;;;;;;;5057013;28;20136;-39
2021/03/10 01:28:11;;;;;;;10.67;5.93;;;;;;;;;;5057489;28;20031;-39
2021/03/10 01:30:36;;;;;;;8.93;6.30;;;;;;;;;;5057152;28;20025;-39
2021/03/10 01:33:01;;;;;;;9.43;5.93;;;;;;;;;;5057253;28;20367;-39
2021/03/10 01:35:27;;;;;;;11.25;5.70;;;;;;;;;;5057516;28;20071;-39
2021/03/10 01:37:52;;;;;;;9.30;5.77;;;;;;;;;;5057046;28;20325;-39
2021/03/10 01:40:18;;;;;;;9.07;5.50;;;;;;;;;;5056930;28;20593;-39
2021/03/10 01:42:43;;;;;;;9.80;5.70;;;;;;;;;;5057154;28;20025;-39
2021/03/10 01:45:09;;;;;;;8.38;5.78;;;;;;;;;;5056940;28;20025;-39
2021/03/10 01:47:34;;;;;;;7.00;5.07;;;;;;;;;;5057041;28;20021;-39
2021/03/10 01:50:01;;;;;;;8.45;5.78;;;;;;;;;;5056763;28;20021;-39
2021/03/10 01:52:26;;;;;;;15.07;5.72;;;;;;;;;;5056373;28;20036;-39
2021/03/10 01:54:51;;;;;;;10.00;5.60;;;;;;;;;;5056865;28;20021;-39
2021/03/10 01:57:17;;;;;;;8.77;5.73;;;;;;;;;;5056293;28;20278;-39
2021/03/10 01:59:42;;;;;;;9.77;5.50;;;;;;;;;;5056626;28;20243;-39
2021/03/10 02:02:07;;;;;;;7.90;5.13;;;;;;;;;;5056407;28;20246;-39
2021/03/10 02:04:32;;;;;;;8.10;5.33;;;;;;;;;;5056332;28;20017;-39
2021/03/10 02:07:04;;;;;;;12.10;5.90;;;;;;;;;;5056498;28;20040;-39
2021/03/10 02:09:48;;;;;;;9.10;5.70;;;;;;;;;;5056315;28;20381;-39
2021/03/10 02:12:15;;;;;;;10.70;5.65;;;;;;;;;;5055989;28;20021;-39
2021/03/10 02:14:43;;;;;;;10.13;5.18;;;;;;;;;;5055716;28;20036;-39
2021/03/10 02:17:11;;;;;;;7.65;5.15;;;;;;;;;;5055934;28;20052;-39
2021/03/10 02:19:55;;;;;;;7.57;5.20;;;;;;;;;;5056311;28;20017;-39
2021/03/10 02:22:58;;;;;;;10.20;5.55;;;;;;;;;;5056120;28;20017;-39
2021/03/10 02:25:38;;;;;;;7.10;5.28;;;;;;;;;;5013857;28;20033;-39
2021/03/10 02:28:04;;;;;;;7.63;5.07;;;;;;;;;;5014332;28;20033;-40
2021/03/10 02:30:32;;;;;;;8.20;4.85;;;;;;;;;;5038230;28;20033;-39
2021/03/10 02:33:11;;;;;;;10.90;5.32;;;;;;;;;;5056155;28;20287;-40
2021/03/10 02:35:41;;;;;;;7.60;5.28;;;;;;;;;;5055497;28;20131;-40
2021/03/10 02:38:07;;;;;;;8.13;4.68;;;;;;;;;;5055635;28;20025;-39
2021/03/10 02:40:33;;;;;;;9.65;5.25;;;;;;;;;;5038192;28;20294;-39
2021/03/10 02:42:58;;;;;;;8.77;5.13;;;;;;;;;;5055647;28;20047;-40
2021/03/10 02:45:25;;;;;;;8.63;5.40;;;;;;;;;;5055252;28;20021;-40
2021/03/10 02:47:51;;;;;;;8.10;4.38;;;;;;;;;;5055545;28;20032;-39
2021/03/10 02:50:16;;;;;;;10.80;5.05;;;;;;;;;;5055375;28;20024;-39
2021/03/10 02:52:41;;;;;;;8.13;4.57;;;;;;;;;;5053108;28;20100;-39
2021/03/10 02:55:07;;;;;;;6.95;4.18;;;;;;;;;;5052493;28;20027;-39
2021/03/10 02:57:32;;;;;;;8.80;5.07;;;;;;;;;;5053398;28;20445;-39
2021/03/10 02:59:59;;;;;;;7.50;4.20;;;;;;;;;;5053528;28;20032;-39
2021/03/10 03:02:26;;;;;;;10.68;4.55;;;;;;;;;;5055042;28;20048;-39
2021/03/10 03:04:52;;;;;;;8.82;4.60;;;;;;;;;;5054616;28;20360;-40
2021/03/10 03:07:17;;;;;;;7.78;4.25;;;;;;;;;;5055141;28;20436;-39
2021/03/10 03:09:43;;;;;;;6.50;4.10;;;;;;;;;;5054201;28;20053;-40
2021/03/10 03:12:08;;;;;;;7.63;4.67;;;;;;;;;;5055020;28;20020;-39
2021/03/10 03:14:35;;;;;;;8.43;4.47;;;;;;;;;;5054982;28;20254;-39
2021/03/10 03:17:01;;;;;;;7.28;3.97;;;;;;;;;;5054385;28;20028;-39
2021/03/10 03:19:26;;;;;;;12.20;4.25;;;;;;;;;;5054453;28;20021;-40
2021/03/10 03:21:52;;;;;;;11.43;4.25;;;;;;;;;;5054941;28;20021;-40
2021/03/10 03:24:18;;;;;;;7.07;4.30;;;;;;;;;;5054131;28;20358;-40
2021/03/10 03:26:44;;;;;;;6.97;4.07;;;;;;;;;;5053849;28;20246;-40
2021/03/10 03:29:10;;;;;;;9.80;4.50;;;;;;;;;;5054788;28;20017;-40
2021/03/10 03:31:35;;;;;;;10.10;4.53;;;;;;;;;;5054340;28;20043;-39
2021/03/10 03:34:02;;;;;;;9.23;4.97;;;;;;;;;;5054626;28;20055;-39
2021/03/10 03:36:27;;;;;;;8.32;4.47;;;;;;;;;;5054362;28;20049;-40
2021/03/10 03:38:52;;;;;;;7.53;4.80;;;;;;;;;;5051969;28;20360;-39
2021/03/10 03:41:19;;;;;;;7.18;4.43;;;;;;;;;;5053831;28;20681;-39
2021/03/10 03:43:45;;;;;;;7.82;4.30;;;;;;;;;;5052558;28;20086;-39
2021/03/10 03:46:10;;;;;;;6.70;4.22;;;;;;;;;;5053320;28;20421;-39
2021/03/10 03:48:35;;;;;;;7.50;4.38;;;;;;;;;;5054529;28;20097;-39
2021/03/10 03:51:00;;;;;;;7.63;4.07;;;;;;;;;;5051745;28;20017;-39
2021/03/10 03:53:25;;;;;;;10.60;4.73;;;;;;;;;;5052073;28;20269;-39
2021/03/10 03:55:51;;;;;;;9.63;4.40;;;;;;;;;;5050280;28;20274;-39
2021/03/10 03:58:16;;;;;;;6.23;3.90;;;;;;;;;;5052230;28;20056;-39
2021/03/10 04:00:41;;;;;;;9.07;4.60;;;;;;;;;;5052693;28;20028;-39
2021/03/10 04:03:06;;;;;;;9.02;4.68;;;;;;;;;;5054708;28;20252;-40
2021/03/10 04:05:31;;;;;;;8.60;3.83;;;;;;;;;;5053930;28;20102;-38
2021/03/10 04:07:58;;;;;;;7.20;4.10;;;;;;;;;;5053046;28;20360;-38
2021/03/10 04:10:24;;;;;;;8.23;4.13;;;;;;;;;;5053810;28;20256;-39
2021/03/10 04:12:50;;;;;;;10.82;4.57;;;;;;;;;;5054027;28;20108;-39
2021/03/10 04:15:15;;;;;;;9.50;5.00;;;;;;;;;;5053445;28;20044;-39
2021/03/10 04:17:41;;;;;;;7.88;4.32;;;;;;;;;;5052898;28;20270;-39
2021/03/10 04:20:14;;;;;;;9.95;4.90;;;;;;;;;;5053817;28;20017;-39
2021/03/10 04:22:39;;;;;;;6.63;4.13;;;;;;;;;;5050701;28;20100;-39
2021/03/10 04:25:05;;;;;;;6.72;4.07;;;;;;;;;;5053469;28;20328;-39
2021/03/10 04:27:31;;;;;;;8.07;3.92;;;;;;;;;;5051668;28;20021;-39
2021/03/10 04:29:56;;;;;;;11.55;4.57;;;;;;;;;;5053477;28;20021;-39
2021/03/10 04:32:21;;;;;;;8.67;5.07;;;;;;;;;;5054033;28;20021;-39
2021/03/10 04:34:46;;;;;;;9.60;4.83;;;;;;;;;;5054055;28;20380;-39
2021/03/10 04:37:11;;;;;;;8.23;4.37;;;;;;;;;;5053587;28;20115;-39
2021/03/10 04:39:37;;;;;;;7.90;4.67;;;;;;;;;;5058170;28;20024;-39
2021/03/10 04:42:02;;;;;;;6.30;4.27;;;;;;;;;;5058137;28;20658;-39
2021/03/10 04:44:27;;;;;;;7.55;4.47;;;;;;;;;;5057822;28;20032;-39
2021/03/10 04:46:53;;;;;;;10.18;4.95;;;;;;;;;;5057065;28;20036;-39
2021/03/10 04:49:18;;;;;;;9.23;5.00;;;;;;;;;;5057386;28;20025;-39
2021/03/10 04:51:43;;;;;;;8.83;5.17;;;;;;;;;;5057574;28;20017;-39
2021/03/10 04:54:08;;;;;;;12.73;5.47;;;;;;;;;;5057609;28;20520;-39
2021/03/10 04:56:33;;;;;;;8.98;4.90;;;;;;;;;;5056682;28;20535;-39
2021/03/10 04:58:59;;;;;;;8.97;5.23;;;;;;;;;;5056593;28;20079;-39
2021/03/10 05:01:24;;;;;;;9.83;5.07;;;;;;;;;;5057329;28;20329;-39
2021/03/10 05:03:49;;;;;;;10.20;5.47;;;;;;;;;;5057428;28;20059;-39
2021/03/10 05:06:14;;;;;;;11.57;5.38;;;;;;;;;;5057576;28;20094;-39
2021/03/10 05:08:39;;;;;;;9.30;5.23;;;;;;;;;;5056413;28;20385;-39
2021/03/10 05:11:05;;;;;;;13.87;5.23;;;;;;;;;;5056190;28;20270;-39
2021/03/10 05:13:30;;;;;;;9.57;5.50;;;;;;;;;;5057297;28;20327;-39
2021/03/10 05:15:55;;;;;;;12.10;5.27;;;;;;;;;;5057359;28;20129;-39
2021/03/10 05:18:20;;;;;;;11.27;5.47;;;;;;;;;;5057680;28;20404;-39
2021/03/10 05:20:45;;;;;;;10.43;5.50;;;;;;;;;;5056603;28;20017;-39
2021/03/10 05:23:10;;;;;;;10.87;5.87;;;;;;;;;;5057056;28;20049;-39
2021/03/10 05:25:36;;;;;;;10.50;6.60;;;;;;;;;;5057151;28;20717;-39
2021/03/10 05:28:01;;;;;;;14.37;6.87;;;;;;;;;;5056966;28;20021;-39
2021/03/10 05:30:26;;;;;;;12.40;6.50;;;;;;;;;;5056933;28;20238;-39
2021/03/10 05:32:51;;;;;;;15.13;6.43;;;;;;;;;;5057424;28;20234;-39
2021/03/10 05:35:16;;;;;;;10.70;7.03;;;;;;;;;;5056360;28;20028;-39
2021/03/10 05:37:41;;;;;;;13.03;6.83;;;;;;;;;;5056038;28;20020;-39
2021/03/10 05:40:07;;;;;;;15.43;7.20;;;;;;;;;;5056958;28;20246;-39
2021/03/10 05:42:33;;;;;;;12.80;6.53;;;;;;;;;;5056324;28;20543;-39
2021/03/10 05:44:58;;;;;;;11.63;6.18;;;;;;;;;;5055908;28;20096;-39
2021/03/10 05:47:23;;;;;;;13.07;6.88;;;;;;;;;;5056267;28;20025;-39
2021/03/10 05:49:48;;;;;;;11.50;6.00;;;;;;;;;;5055711;28;20056;-39
2021/03/10 05:52:14;;;;;;;11.83;6.63;;;;;;;;;;5056763;28;20067;-39
2021/03/10 05:54:41;;;;;;;13.15;6.45;;;;;;;;;;5055447;28;20325;-39
2021/03/10 05:57:07;;;;;;;11.45;6.63;;;;;;;;;;5055460;28;20104;-39
2021/03/10 05:59:32;;;;;;;9.65;5.82;;;;;;;;;;5055892;28;20383;-39
2021/03/10 06:01:57;;;;;;;13.33;5.80;;;;;;;;;;5055730;28;20043;-39
2021/03/10 06:04:24;;;;;;;10.73;6.07;;;;;;;;;;5055413;28;20242;-39
2021/03/10 06:06:49;;;;;;;12.02;5.97;;;;;;;;;;5062894;28;20413;-39
2021/03/10 06:09:15;;;;;;;10.00;6.00;;;;;;;;;;5054626;28;20075;-39
2021/03/10 06:11:56;;;;;;;10.90;6.43;;;;;;;;;;5054772;28;20028;-39
2021/03/10 06:14:22;;;;;;;12.27;5.72;;;;;;;;;;5055893;28;20047;-39
2021/03/10 06:16:47;;;;;;;10.52;5.82;;;;;;;;;;5055943;28;20413;-39
2021/03/10 06:19:13;;;;;;;10.45;5.60;;;;;;;;;;5055900;28;20345;-39
2021/03/10 06:21:47;;;;;;;11.48;5.55;;;;;;;;;;5056480;28;20013;-39
2021/03/10 06:24:13;;;;;;;9.85;5.90;;;;;;;;;;5056298;28;20017;-39
2021/03/10 06:26:38;;;;;;;12.30;5.70;;;;;;;;;;5055374;28;20044;-39
2021/03/10 06:29:12;;;;;;;8.85;5.53;;;;;;;;;;5056109;28;20250;-39
2021/03/10 06:31:38;;;;;;;15.82;6.20;;;;;;;;;;5055699;28;20128;-39
2021/03/10 06:34:08;;;;;;;8.40;5.30;;;;;;;;;;5055601;28;20405;-39
2021/03/10 06:36:35;;;;;;;11.75;5.40;;;;;;;;;;5054974;28;20108;-39
2021/03/10 06:39:01;;;;;;;10.40;5.75;;;;;;;;;;5054680;28;20017;-39
2021/03/10 06:41:27;;;;;;;8.65;5.05;;;;;;;;;;5055320;28;20017;-39
2021/03/10 06:43:52;;;;;;;9.02;5.38;;;;;;;;;;5055310;28;20017;-39
2021/03/10 06:46:18;;;;;;;11.77;5.30;;;;;;;;;;5053987;28;20314;-39
2021/03/10 06:48:55;;;;;;;12.27;5.38;;;;;;;;;;5053973;28;20108;-39
2021/03/10 06:51:21;;;;;;;10.38;4.72;;;;;;;;;;5052492;28;20021;-39
2021/03/10 06:53:46;;;;;;;9.60;5.47;;;;;;;;;;5051777;28;20067;-39
2021/03/10 06:56:25;;;;;;;9.18;5.60;;;;;;;;;;5050146;28;20309;-39
2021/03/10 06:59:01;;;;;;;12.07;6.30;;;;;;;;;;5052166;28;20013;-39
2021/03/10 07:01:27;;;;;;;10.02;4.80;;;;;;;;;;5052672;28;20048;-39
2021/03/10 07:03:54;;;;;;;11.43;5.85;;;;;;;;;;5053163;28;20047;-39
2021/03/10 07:06:20;;;;;;;10.40;5.60;;;;;;;;;;5054172;28;20032;-39
2021/03/10 07:08:45;;;;;;;11.63;5.50;;;;;;;;;;5053599;28;20029;-39
2021/03/10 07:11:11;;;;;;;9.65;4.82;;;;;;;;;;5054365;28;20402;-39
2021/03/10 07:13:36;;;;;;;12.52;5.50;;;;;;;;;;5054298;28;20458;-39
2021/03/10 07:16:01;;;;;;;12.98;5.45;;;;;;;;;;5051732;28;20324;-39
2021/03/10 07:18:27;;;;;;;12.35;6.35;;;;;;;;;;5052919;28;20025;-39
2021/03/10 07:20:53;;;;;;;47.50;8.90;;;;;;;;;;5053135;28;20460;-39
2021/03/10 07:23:19;;;;;;;20.38;6.80;;;;;;;;;;5052108;28;20040;-39
2021/03/10 07:25:44;;;;;;;31.20;7.25;;;;;;;;;;5052560;28;20221;-39
2021/03/10 07:28:15;;;;;;;17.20;6.55;;;;;;;;;;5054346;28;20025;-39
2021/03/10 07:30:44;;;;;;;24.73;7.25;;;;;;;;;;5053031;28;20021;-39
2021/03/10 07:33:13;;;;;;;28.95;7.20;;;;;;;;;;5053924;28;20305;-39
2021/03/10 07:35:50;;;;;;;18.77;6.47;;;;;;;;;;5054469;28;20335;-39
2021/03/10 07:38:15;;;;;;;22.98;6.45;;;;;;;;;;5053439;28;20035;-39
2021/03/10 07:40:53;;;;;;;16.58;6.78;;;;;;;;;;5054406;28;20084;-39
2021/03/10 07:43:18;;;;;;;24.05;7.55;;;;;;;;;;5053343;28;20024;-39
2021/03/10 07:45:44;;;;;;;17.95;7.78;;;;;;;;;;5053855;28;20275;-39
2021/03/10 07:48:09;;;;;;;17.77;6.30;;;;;;;;;;5052625;28;20157;-39
2021/03/10 07:50:37;;;;;;;16.00;6.70;;;;;;;;;;5053395;28;20096;-39
2021/03/10 07:53:03;;;;;;;19.50;6.95;;;;;;;;;;5033137;28;20029;-40
2021/03/10 07:55:28;;;;;;;13.97;6.57;;;;;;;;;;5028863;28;20033;-38
2021/03/10 07:57:54;;;;;;;13.13;6.47;;;;;;;;;;5031916;28;20279;-39
2021/03/10 08:00:19;;;;;;;13.52;5.93;;;;;;;;;;5031158;28;20490;-38
2021/03/10 08:02:47;;;;;;;14.50;5.97;;;;;;;;;;5025742;28;20056;-38
2021/03/10 08:19:26;;;;;;;21.85;8.30;;;;;;;19.00;33.12;101673.66;5000452;27;20378;-35
2021/03/10 08:21:53;;;;;;;27.45;7.45;;;;;;;18.76;33.99;101675.91;5045426;28;20049;-32
2021/03/10 08:30:12;;;;;;;17.00;5.60;;;;;;;19.05;33.10;101724.03;5028441;27;20366;-39
2021/03/10 08:32:38;;;;;;;24.02;6.15;;;;;;;18.18;34.86;101741.88;4967889;28;20059;-37
2021/03/10 08:36:05;;;;;;;16.48;4.97;;;;;;;18.48;33.78;101736.25;5038162;27;20541;-46
2021/03/10 08:38:31;;;;;;;26.70;6.00;;;;;;;18.27;37.16;101728.22;4975001;28;20042;-41
2021/03/10 08:41:03;;;;;;;17.73;5.35;;;;;;;18.63;33.58;101727.59;5005848;28;20042;-32
2021/03/10 08:43:28;;;;;;;10.35;4.32;;;;;;;18.59;33.76;101737.50;5018912;28;20041;-35
2021/03/10 08:45:54;;;;;;;14.52;4.75;;;;;;;18.34;34.03;101737.66;5044392;28;20045;-36
2021/03/10 08:48:20;;;;;;;10.75;4.07;;;;;;;18.19;34.50;101735.66;5024761;28;20132;-36
2021/03/10 08:50:46;;;;;;;11.45;4.75;;;;;;;18.20;34.62;101728.53;5023927;28;20038;-33
2021/03/10 08:53:14;;;;;;;18.40;4.97;;;;;;;18.13;34.73;101730.59;5022631;28;20128;-51
2021/03/10 08:55:42;;;;;;;14.00;4.43;;;;;;;18.18;34.89;101725.94;5034909;28;20037;-51
2021/03/10 08:58:14;;;;;;;10.13;4.30;;;;;;;18.09;34.91;101728.97;5039664;28;20045;-50
2021/03/10 09:00:42;;;;;;;10.63;4.00;;;;;;;18.03;34.91;101723.94;5045499;28;20053;-50
2021/03/10 09:03:19;;;;;;;9.02;3.92;;;;;;;17.93;34.94;101725.22;5023608;28;20386;-51
2021/03/10 09:05:49;;;;;;;7.25;4.47;;;;;;;17.93;35.10;101719.91;5018344;28;20060;-52
2021/03/10 09:08:20;;;;;;;9.07;4.03;;;;;;;17.99;35.06;101720.50;5029473;28;20037;-50
2021/03/10 09:10:48;;;;;;;7.65;4.15;;;;;;;18.01;34.72;101707.19;5032356;28;20386;-50
2021/03/10 09:13:25;;;;;;;8.77;4.03;;;;;;;18.01;34.75;101710.72;5036276;28;20353;-52
2021/03/10 09:15:51;;;;;;;7.03;4.45;;;;;;;18.02;34.80;101714.22;5041984;28;20044;-53
2021/03/10 09:18:32;;;;;;;8.38;4.43;;;;;;;17.96;34.80;101717.97;5058352;28;20068;-51
2021/03/10 09:20:58;;;;;;;8.52;3.90;;;;;;;17.91;34.97;101717.31;5057045;28;20325;-51
2021/03/10 09:23:26;;;;;;;10.38;4.07;;;;;;;17.92;34.94;101704.91;5062006;28;20099;-51
2021/03/10 09:25:56;;;;;;;8.98;3.55;;;;;;;17.99;34.86;101703.72;5060403;28;20037;-54
2021/03/10 09:28:34;;;;;;;8.40;3.83;;;;;;;18.07;34.76;101706.91;5071142;28;20091;-51
2021/03/10 09:31:12;;;;;;;6.40;3.65;;;;;;;18.16;34.63;101705.69;5035903;28;20034;-51
2021/03/10 09:33:40;;;;;;;7.57;3.78;;;;;;;18.11;34.81;101691.72;5061227;28;20068;-54
2021/03/10 09:36:06;;;;;;;5.85;3.30;;;;;;;18.15;34.81;101699.50;5059616;28;20052;-54
2021/03/10 09:38:41;;;;;;;5.85;2.92;;;;;;;18.22;34.76;101694.78;5061557;28;20041;-53
2021/03/10 09:41:11;;;;;;;6.75;3.42;;;;;;;18.26;34.66;101686.66;5045132;28;20529;-54
2021/03/10 09:43:39;;;;;;;8.98;4.03;;;;;;;18.26;34.31;101681.31;5045481;28;20029;-55
2021/03/10 09:46:11;;;;;;;5.25;3.20;;;;;;;18.31;34.57;101679.31;5057255;28;20443;-55
2021/03/10 09:48:41;;;;;;;7.95;3.45;;;;;;;18.25;34.68;101676.09;5060064;28;20115;-53
2021/03/10 09:51:18;;;;;;;10.57;3.78;;;;;;;18.14;35.21;101673.00;5023556;28;20431;-55
2021/03/10 09:53:50;;;;;;;6.60;3.65;;;;;;;18.11;35.00;101671.31;5009746;28;20030;-51
2021/03/10 09:56:22;;;;;;;9.98;3.85;;;;;;;18.10;35.34;101671.38;5024393;28;20087;-51
2021/03/10 09:58:59;;;;;;;6.80;3.92;;;;;;;18.08;35.31;101666.16;4997788;28;20421;-55
2021/03/10 10:01:31;;;;;;;8.63;3.83;;;;;;;18.09;35.16;101678.50;5050868;28;20454;-52
2021/03/10 10:04:09;;;;;;;7.32;3.58;;;;;;;18.07;35.39;101675.03;5032910;28;20048;-55
2021/03/10 10:06:35;;;;;;;8.77;3.70;;;;;;;18.04;35.41;101669.88;5016463;28;20338;-53
2021/03/10 10:09:01;;;;;;;6.55;3.45;;;;;;;18.01;35.55;101675.31;5006006;28;20149;-55
2021/03/10 10:11:31;;;;;;;6.45;3.40;;;;;;;18.01;35.44;101665.56;5045465;28;20080;-55
2021/03/10 10:13:58;;;;;;;5.28;3.00;;;;;;;18.03;35.64;101671.66;5028245;28;20034;-55
2021/03/10 10:16:23;;;;;;;6.65;3.55;;;;;;;18.06;35.56;101670.66;5043593;28;20048;-52
2021/03/10 10:18:57;;;;;;;6.78;3.60;;;;;;;18.07;35.56;101669.72;5034989;28;20040;-52
2021/03/10 10:21:32;;;;;;;8.93;3.20;;;;;;;18.08;35.46;101662.63;4987325;28;10000521;-52
2021/03/10 10:23:59;;;;;;;5.60;3.60;;;;;;;18.09;35.67;101654.59;4514369;28;10000491;-51
2021/03/10 10:26:25;;;;;;;4.78;3.30;;;;;;;18.10;35.51;101653.66;5044498;28;20033;-53
2021/03/10 10:28:51;;;;;;;4.93;3.10;;;;;;;18.10;35.54;101635.06;5030563;28;20457;-54
2021/03/10 10:31:19;;;;;;;6.20;3.50;;;;;;;18.15;35.31;101635.75;5044011;28;20037;-56
2021/03/10 10:33:44;;;;;;;9.20;3.65;;;;;;;18.19;35.52;101626.72;5053941;28;20063;-54
2021/03/10 10:36:10;;;;;;;4.75;3.20;;;;;;;18.24;35.40;101624.72;5067565;28;20049;-52
2021/03/10 10:38:40;;;;;;;6.75;3.50;;;;;;;18.28;35.46;101623.66;5049807;28;20040;-55
2021/03/10 10:41:06;;;;;;;8.98;3.20;;;;;;;18.32;35.60;101627.91;5052164;28;20036;-54
2021/03/10 10:43:34;;;;;;;6.93;3.22;;;;;;;18.34;35.61;101614.53;5053376;28;20082;-55
2021/03/10 10:46:02;;;;;;;4.40;2.97;;;;;;;18.40;35.75;101602.78;5069096;28;20078;-55
2021/03/10 10:48:35;;;;;;;4.97;2.78;;;;;;;18.36;35.73;101599.41;5044022;28;99730;-55
2021/03/10 10:53:14;;;;;;;7.70;3.80;;;;;;;18.41;35.54;101588.56;5134070;27;21065;-80
2021/03/10 10:55:40;;;;;;;5.55;3.90;;;;;;;18.43;35.88;101594.69;5135324;28;20079;-81
2021/03/10 10:58:06;;;;;;;9.57;3.88;;;;;;;18.44;35.84;101577.78;5134741;28;20044;-85
2021/03/10 11:00:32;;;;;;;7.88;4.35;;;;;;;18.42;35.92;101575.22;5134324;28;20039;-77
2021/03/10 11:03:04;;;;;;;5.78;3.80;;;;;;;18.39;35.97;101571.84;5112540;28;20036;-77
2021/03/10 11:05:41;;;;;;;11.10;4.15;;;;;;;18.34;36.14;101556.94;5108908;28;20401;-82
2021/03/10 11:08:10;;;;;;;6.15;3.83;;;;;;;18.41;35.96;101554.03;5102299;28;20048;-83
2021/03/10 11:10:36;;;;;;;6.70;3.92;;;;;;;18.50;35.69;101550.97;5101605;28;20028;-81
2021/03/10 11:13:04;;;;;;;7.07;4.80;;;;;;;18.53;35.46;101548.16;5104190;28;20055;-84
2021/03/10 11:15:42;;;;;;;7.50;4.32;;;;;;;18.54;35.26;101536.59;5113361;28;20052;-82
2021/03/10 11:18:27;;;;;;;10.25;4.78;;;;;;;18.47;35.35;101529.84;5102375;28;20147;-80
2021/03/10 11:20:53;;;;;;;8.60;4.40;;;;;;;18.45;35.65;101521.03;5094293;28;20045;-81
2021/03/10 11:23:19;;;;;;;8.52;4.95;;;;;;;18.49;35.36;101512.88;5101071;28;20059;-83
2021/03/10 11:25:45;;;;;;;9.07;5.38;;;;;;;18.46;35.06;101521.00;5111730;28;20046;-81
2021/03/10 11:28:13;;;;;;;9.38;5.63;;;;;;;18.48;35.06;101512.97;5109564;28;20054;-83
2021/03/10 11:30:39;;;;;;;8.75;4.93;;;;;;;18.48;34.90;101520.94;5099909;28;20052;-82
2021/03/10 11:33:09;;;;;;;7.25;4.43;;;;;;;18.48;34.86;101515.63;5088961;28;20036;-79
2021/03/10 11:35:40;;;;;;;12.27;6.00;;;;;;;18.53;34.74;101509.13;5085320;28;20052;-78
2021/03/10 11:38:07;;;;;;;8.35;5.32;;;;;;;18.56;34.67;101510.78;5104727;28;20131;-77
2021/03/10 11:40:33;;;;;;;10.25;5.78;;;;;;;18.57;34.87;101500.09;5110587;28;20051;-77
2021/03/10 11:42:59;;;;;;;14.77;6.57;;;;;;;18.58;34.86;101483.22;5088571;28;20039;-76
2021/03/10 11:45:25;;;;;;;10.00;5.80;;;;;;;18.62;34.69;101489.25;5090357;28;20052;-76
2021/03/10 11:47:51;;;;;;;9.93;5.95;;;;;;;18.71;34.47;101486.19;5109047;28;20036;-77
2021/03/10 11:50:17;;;;;;;15.02;7.25;;;;;;;18.65;34.71;101478.50;5109739;28;20044;-77
2021/03/10 11:52:44;;;;;;;8.35;5.47;;;;;;;18.63;34.56;101478.53;5109702;28;20036;-75
2021/03/10 11:55:12;;;;;;;8.10;5.60;;;;;;;18.67;34.81;101473.97;5110269;28;20036;-76
2021/03/10 11:57:40;;;;;;;11.70;6.85;;;;;;;18.63;34.62;101477.69;5108678;28;20036;-76
2021/03/10 12:00:09;;;;;;;12.32;6.10;;;;;;;18.62;34.79;101465.31;5108203;28;20050;-76
2021/03/10 12:02:47;;;;;;;10.80;5.97;;;;;;;18.67;34.55;101452.69;5104303;28;20048;-75
2021/03/10 12:05:21;;;;;;;11.63;6.90;;;;;;;18.60;34.67;101461.88;5094965;28;20494;-75
2021/03/10 12:07:47;;;;;;;11.80;6.25;;;;;;;18.69;34.65;101450.84;5096051;28;20090;-76
2021/03/10 12:10:15;;;;;;;13.38;6.18;;;;;;;18.72;34.52;101450.69;5095446;28;20032;-76
2021/03/10 12:12:42;;;;;;;12.20;6.25;;;;;;;18.69;34.50;101450.84;5094315;28;20048;-76
2021/03/10 12:15:10;;;;;;;13.20;6.70;;;;;;;18.72;34.72;101453.34;5094239;28;20055;-77
2021/03/10 12:17:37;;;;;;;12.15;7.18;;;;;;;18.78;34.43;101433.56;5095803;28;20032;-77
2021/03/10 12:20:05;;;;;;;9.43;6.00;;;;;;;18.82;34.51;101436.03;5095708;28;20032;-83
2021/03/10 12:22:31;;;;;;;12.45;6.70;;;;;;;18.80;34.47;101432.56;5095513;28;20032;-82
2021/03/10 12:24:57;;;;;;;12.02;7.20;;;;;;;18.84;34.65;101418.19;5095755;28;20044;-83
2021/03/10 12:27:24;;;;;;;12.73;5.72;;;;;;;18.89;34.59;101421.47;5095353;28;20044;-81
2021/03/10 12:29:51;;;;;;;14.80;6.30;;;;;;;18.82;34.66;101419.19;5095425;28;20059;-82
2021/03/10 12:32:18;;;;;;;11.43;6.35;;;;;;;18.78;34.43;101413.16;5094374;28;20044;-82
2021/03/10 12:34:44;;;;;;;11.63;6.80;;;;;;;18.75;34.76;101402.66;5095585;28;20039;-82
2021/03/10 12:37:10;;;;;;;17.75;9.00;;;;;;;18.73;34.63;101401.88;5095302;28;20028;-81
2021/03/10 12:39:37;;;;;;;13.77;6.90;;;;;;;18.63;35.13;101400.56;5095394;28;20032;-84
2021/03/10 12:42:03;;;;;;;14.23;8.68;;;;;;;18.57;34.95;101401.75;5095478;28;20063;-82
2021/03/10 12:44:29;;;;;;;13.38;8.45;;;;;;;18.57;34.86;101392.88;5093619;28;20052;-83
2021/03/10 12:46:55;;;;;;;15.27;8.80;;;;;;;18.51;35.24;101394.06;5095053;28;20044;-83
2021/03/10 12:49:21;;;;;;;11.85;7.88;;;;;;;18.49;34.96;101389.75;5093524;28;20040;-84
2021/03/10 12:51:47;;;;;;;13.75;7.75;;;;;;;18.50;34.90;101383.50;5094901;28;20032;-83
2021/03/10 12:54:13;;;;;;;20.00;8.60;;;;;;;18.42;35.25;101375.88;5093370;28;20052;-76
2021/03/10 12:56:39;;;;;;;11.90;7.10;;;;;;;18.37;35.34;101379.72;5081696;28;20020;-75
2021/03/10 12:59:05;;;;;;;15.73;7.82;;;;;;;18.40;35.32;101374.22;5089127;28;20056;-75
2021/03/10 13:01:31;;;;;;;18.02;8.55;;;;;;;18.41;36.50;101373.28;5074774;28;20056;-76
2021/03/10 13:03:57;;;;;;;14.88;8.63;;;;;;;18.37;36.58;101367.28;5082526;28;20032;-75
2021/03/10 13:06:23;;;;;;;14.35;7.57;;;;;;;18.40;36.89;101376.88;5076436;28;20033;-84
2021/03/10 13:08:49;;;;;;;12.73;6.90;;;;;;;18.44;36.50;101366.03;5080688;28;20028;-79
2021/03/10 13:11:15;;;;;;;13.60;7.30;;;;;;;18.42;36.02;101359.06;5083820;28;20067;-77
2021/03/10 13:13:43;;;;;;;13.32;7.78;;;;;;;18.43;36.16;101358.13;5077162;28;20410;-77
2021/03/10 13:16:09;;;;;;;13.85;7.25;;;;;;;18.39;35.91;101356.56;5076822;28;20036;-77
2021/03/10 13:18:35;;;;;;;12.02;6.75;;;;;;;18.33;36.25;101353.25;5074764;28;20040;-77
2021/03/10 13:21:01;;;;;;;9.77;6.63;;;;;;;18.37;36.51;101354.00;5081308;28;20382;-78
2021/03/10 13:23:27;;;;;;;14.38;6.80;;;;;;;18.36;35.91;101351.41;5070909;28;20495;-77
2021/03/10 13:25:53;;;;;;;9.35;5.57;;;;;;;18.33;35.90;101347.06;5079688;28;20459;-78
2021/03/10 13:28:19;;;;;;;10.57;6.60;;;;;;;18.30;35.90;101344.56;5075644;28;20585;-78
2021/03/10 13:30:45;;;;;;;11.73;6.18;;;;;;;18.32;35.89;101340.91;5080504;28;20545;-80
2021/03/10 13:33:11;;;;;;;14.68;7.45;;;;;;;18.34;35.74;101333.72;5083012;28;20040;-78